Accueil
METAR-TAF:

METAR-TAF

Aéroports :

Friedrichshafen, Allemagne

Aéroport de Friedrichshafen

latitude: 47-40N, longitude: 009-31E, altitude: 416 m

Observation

Le bulletin a été fait il y a 12 minutes, à 06:20 UTC
Vent 2 kt de direction variable
Température 12°C
Humidité 82%
Pression 1018 hPa
Visibilité 10 km ou plus
pas de nuages en-dessous de 1500 mètres et pas de cumulonimbus.

METAR: EDNY 220620Z VRB02KT CAVOK 12/09 Q1018

Heure: 08:32 (06:32 UTC)

Prévision

Le bulletin a été fait il y a 1 heure et 32 minutes, à 05:00 UTC
Prévision valable du 22 à 06 UTC au 23 à 06 UTC
Vent 3 kt de est/nord-est
Visibilité 10 km ou plus
pas de nuages en-dessous de 1500 mètres et pas de cumulonimbus.
Evoluant progressivement
du 22 à 08 UTC au 22 à 10 UTC
Vent 5 kt de sud-ouest
Evoluant progressivement
du 22 à 18 UTC au 22 à 20 UTC
Vent 3 kt de direction variable

TAF: EDNY 220500Z 2206/2306 06003KT CAVOK BECMG 2208/2210 23005KT BECMG 2218/2220 VRB03KT

Observations et prévisions météorologiques de plus de 4000 aéroports (messages METAR et TAF).

Les stations disponibles sont représentées par des disques jaunes et rouges sur la carte.

Passer la souris dessus pour voir le nom de la station.

Cliquer dessus pour voir les observations et prévisions météorologiques.

Pour changer de carte: cliquez sur les boutons verts avec une croix noire pour zoomer, sur le bouton vert avec un tiret pour effectuer un zoom arrière, ou sur les flèches vertes pour les cartes adjacentes.


METAR-TAF: